createdAt,value
2022-09-07T00:53:01.884Z,989.35
2022-09-07T00:53:58.669Z,989.38
2022-09-07T00:57:16.494Z,989.39
2022-09-07T00:58:15.235Z,989.40
2022-09-07T01:06:50.745Z,989.41
2022-09-07T01:07:50.842Z,989.38
2022-09-07T01:08:49.989Z,989.39
2022-09-07T01:09:46.377Z,989.42
2022-09-07T01:10:49.295Z,989.40
2022-09-07T01:11:49.626Z,989.46
2022-09-07T01:12:49.666Z,989.44
2022-09-07T01:13:48.692Z,989.43
2022-09-07T01:15:49.414Z,989.45
2022-09-07T01:16:45.588Z,989.46
2022-09-07T01:17:44.588Z,989.46
2022-09-07T01:18:44.478Z,989.48
2022-09-07T01:19:44.399Z,989.46
2022-09-07T01:20:44.306Z,989.47
2022-09-07T01:21:44.264Z,989.45
2022-09-07T01:22:44.148Z,989.44
2022-09-07T01:23:44.065Z,989.38
2022-09-07T01:24:43.967Z,989.37
2022-09-07T01:25:43.887Z,989.36
2022-09-07T01:26:43.798Z,989.33
2022-09-07T01:27:43.718Z,989.29
2022-09-07T01:28:43.633Z,989.27
2022-09-07T01:29:43.548Z,989.25
2022-09-07T01:30:43.516Z,989.29
2022-09-07T01:31:43.373Z,989.26
2022-09-07T01:32:43.293Z,989.26
2022-09-07T01:33:43.202Z,989.29
2022-09-07T01:34:43.145Z,989.30
2022-09-07T01:35:43.035Z,989.33
2022-09-07T01:36:42.951Z,989.31
2022-09-07T01:37:42.863Z,989.29
2022-09-07T01:38:42.775Z,989.26
2022-09-07T01:39:42.746Z,989.26
2022-09-07T01:40:42.660Z,989.27
2022-09-07T01:41:42.539Z,989.28
2022-09-07T01:42:42.448Z,989.26
2022-09-07T01:43:42.401Z,989.26
2022-09-07T01:44:42.303Z,989.26
2022-09-07T01:45:42.187Z,989.21
2022-09-07T01:46:42.214Z,989.25
2022-09-07T01:47:42.057Z,989.21
2022-09-07T01:48:41.934Z,989.21
2022-09-07T01:49:41.857Z,989.19
2022-09-07T01:50:41.755Z,989.20
2022-09-07T01:51:41.689Z,989.19
2022-09-07T01:52:41.590Z,989.16
2022-09-07T01:53:41.511Z,989.18
2022-09-07T01:54:41.425Z,989.20
2022-09-07T01:55:41.348Z,989.19
2022-09-07T01:56:41.256Z,989.18
2022-09-07T01:57:41.173Z,989.16
2022-09-07T01:58:41.083Z,989.15
2022-09-07T01:59:41.012Z,989.11
2022-09-07T02:00:40.913Z,989.10
2022-09-07T02:01:40.874Z,989.04
2022-09-07T02:02:40.859Z,989.01
2022-09-07T02:03:40.653Z,989.04
2022-09-07T02:04:40.625Z,989.00
2022-09-07T02:05:40.488Z,988.97
2022-09-07T02:06:40.408Z,988.98
2022-09-07T02:07:40.319Z,988.97
2022-09-07T02:08:40.232Z,988.95
2022-09-07T02:09:40.147Z,988.93
2022-09-07T02:10:40.069Z,988.92
2022-09-07T02:11:40.002Z,988.89
2022-09-07T02:12:39.892Z,988.85
2022-09-07T02:13:39.813Z,988.87
2022-09-07T02:14:39.729Z,988.86
2022-09-07T02:15:39.663Z,988.88
2022-09-07T02:16:39.558Z,988.88
2022-09-07T02:17:39.473Z,988.88
2022-09-07T02:18:39.382Z,988.84
2022-09-07T02:19:39.312Z,988.85
2022-09-07T02:20:39.218Z,988.86
2022-09-07T02:21:39.134Z,988.83
2022-09-07T02:22:39.055Z,988.79
2022-09-07T02:23:38.965Z,988.80
2022-09-07T02:24:38.873Z,988.76
2022-09-07T02:25:38.793Z,988.76
2022-09-07T02:26:38.704Z,988.75
2022-09-07T02:27:38.622Z,988.77
2022-09-07T02:28:38.540Z,988.78
2022-09-07T02:29:38.457Z,988.74
2022-09-07T02:30:38.429Z,988.78
2022-09-07T02:31:38.328Z,988.78
2022-09-07T02:32:38.198Z,988.73
2022-09-07T02:33:38.171Z,988.72
2022-09-07T02:34:38.026Z,988.70
2022-09-07T02:35:37.936Z,988.75
2022-09-07T02:36:37.863Z,988.73
2022-09-07T02:37:37.774Z,988.70
2022-09-07T02:38:37.686Z,988.70
2022-09-07T02:39:37.676Z,988.71
2022-09-07T02:40:37.518Z,988.69
2022-09-07T02:41:37.451Z,988.67
2022-09-07T02:42:37.411Z,988.67
2022-09-07T02:43:37.262Z,988.65
2022-09-07T02:44:37.203Z,988.67
2022-09-07T02:45:37.094Z,988.64
2022-09-07T02:46:37.035Z,988.62
2022-09-07T02:47:36.922Z,988.61
2022-09-07T02:48:36.834Z,988.58
2022-09-07T02:49:36.755Z,988.59
2022-09-07T02:50:36.667Z,988.58
2022-09-07T02:51:36.598Z,988.57
2022-09-07T02:52:36.515Z,988.53
2022-09-07T02:53:36.418Z,988.55
2022-09-07T02:54:36.333Z,988.48
2022-09-07T02:55:36.249Z,988.45
2022-09-07T02:56:36.159Z,988.49
2022-09-07T02:57:36.086Z,988.49
2022-09-07T02:58:35.994Z,988.48
2022-09-07T02:59:35.905Z,988.48
2022-09-07T03:00:35.820Z,988.52
2022-09-07T03:01:35.916Z,988.49
2022-09-07T03:02:35.727Z,988.48
2022-09-07T03:03:35.569Z,988.45
2022-09-07T03:04:35.527Z,988.46
2022-09-07T03:05:35.399Z,988.44
2022-09-07T03:06:35.307Z,988.44
2022-09-07T03:07:36.031Z,988.43
2022-09-07T03:08:35.135Z,988.40
2022-09-07T03:09:35.052Z,988.38
2022-09-07T03:10:34.967Z,988.41
2022-09-07T03:11:34.940Z,988.34
2022-09-07T03:12:34.802Z,988.35
2022-09-07T03:13:34.717Z,988.36
2022-09-07T03:14:34.636Z,988.34
2022-09-07T03:15:34.591Z,988.34
2022-09-07T03:16:34.465Z,988.36
2022-09-07T03:17:34.403Z,988.34
2022-09-07T03:18:34.293Z,988.31
2022-09-07T03:19:34.205Z,988.31
2022-09-07T03:20:34.128Z,988.34
2022-09-07T03:21:34.037Z,988.31
2022-09-07T03:22:33.953Z,988.33
2022-09-07T03:23:33.868Z,988.35
2022-09-07T03:24:33.788Z,988.34
2022-09-07T03:25:33.701Z,988.37
2022-09-07T03:26:33.648Z,988.30
2022-09-07T03:27:33.544Z,988.35
2022-09-07T03:28:33.443Z,988.34
2022-09-07T03:29:33.361Z,988.32
2022-09-07T03:30:33.295Z,988.25
2022-09-07T03:31:33.180Z,988.32
2022-09-07T03:32:33.099Z,988.34
2022-09-07T03:33:33.074Z,988.29
2022-09-07T03:34:32.938Z,988.30
2022-09-07T03:35:32.850Z,988.28
2022-09-07T03:36:32.764Z,988.24
2022-09-07T03:37:32.681Z,988.24
2022-09-07T03:38:32.739Z,988.27
2022-09-07T03:39:32.610Z,988.24
2022-09-07T03:40:32.425Z,988.23
2022-09-07T03:41:32.344Z,988.17
2022-09-07T03:42:32.248Z,988.21
2022-09-07T03:43:32.173Z,988.20
2022-09-07T03:44:32.086Z,988.17
2022-09-07T03:45:31.998Z,988.20
2022-09-07T03:46:32.005Z,988.18
2022-09-07T03:47:31.828Z,988.21
2022-09-07T03:48:31.831Z,988.21
2022-09-07T03:49:31.664Z,988.21
2022-09-07T03:50:31.580Z,988.23
2022-09-07T03:51:31.484Z,988.20
2022-09-07T03:52:31.410Z,988.23
2022-09-07T03:53:31.313Z,988.20
2022-09-07T03:54:31.242Z,988.19
2022-09-07T03:55:39.819Z,988.20
2022-09-07T03:57:35.442Z,988.19
2022-09-07T03:58:35.345Z,988.21
2022-09-07T03:59:35.279Z,988.23
2022-09-07T04:00:35.179Z,988.23
2022-09-07T04:01:35.138Z,988.25
2022-09-07T04:02:35.070Z,988.29
2022-09-07T04:03:34.914Z,988.40
2022-09-07T04:04:34.832Z,988.58
2022-09-07T04:05:34.751Z,988.98
2022-09-07T04:06:34.669Z,989.02
2022-09-07T04:07:34.580Z,989.03
2022-09-07T04:08:34.490Z,989.01
2022-09-07T04:09:34.403Z,989.11
2022-09-07T04:10:34.318Z,989.11
2022-09-07T04:11:34.231Z,989.09
2022-09-07T04:12:34.152Z,989.11
2022-09-07T04:13:34.069Z,989.07
2022-09-07T04:14:33.984Z,989.00
2022-09-07T04:15:33.896Z,988.96
2022-09-07T04:16:33.872Z,988.90
2022-09-07T04:17:33.724Z,988.96
2022-09-07T04:18:33.639Z,988.86
2022-09-07T04:19:33.551Z,988.88
2022-09-07T04:20:33.469Z,988.98
2022-09-07T04:21:33.384Z,989.00
2022-09-07T04:22:33.299Z,988.91
2022-09-07T04:23:33.209Z,988.95
2022-09-07T04:24:33.125Z,988.86
2022-09-07T04:25:33.045Z,988.92
2022-09-07T04:26:32.957Z,988.97
2022-09-07T04:27:32.868Z,988.93
2022-09-07T04:28:32.783Z,988.97
2022-09-07T04:29:32.702Z,989.03
2022-09-07T04:30:32.663Z,989.03
2022-09-07T04:31:32.532Z,989.01
2022-09-07T04:32:32.439Z,989.06
2022-09-07T04:33:32.356Z,989.09
2022-09-07T04:34:32.274Z,989.05
2022-09-07T04:35:32.186Z,989.06
2022-09-07T04:36:32.105Z,989.01
2022-09-07T04:37:32.017Z,988.97
2022-09-07T04:38:32.238Z,988.95
2022-09-07T04:39:31.879Z,988.90
2022-09-07T04:40:31.762Z,988.87
2022-09-07T04:41:31.673Z,988.87
2022-09-07T04:42:31.592Z,988.88
2022-09-07T04:43:31.707Z,988.91
2022-09-07T04:44:31.422Z,988.89
2022-09-07T04:45:31.334Z,988.87
2022-09-07T04:46:31.252Z,988.86
2022-09-07T04:47:31.167Z,988.85
2022-09-07T04:48:31.168Z,988.85
2022-09-07T04:49:30.994Z,988.87
2022-09-07T04:50:30.918Z,988.91
2022-09-07T04:51:30.825Z,988.91
2022-09-07T04:52:30.744Z,988.93
2022-09-07T04:53:30.661Z,988.93
2022-09-07T04:54:30.576Z,988.95
2022-09-07T04:55:30.492Z,988.93
2022-09-07T04:56:30.398Z,988.93
2022-09-07T04:57:30.321Z,988.93
2022-09-07T04:58:30.392Z,988.92
2022-09-07T04:59:30.151Z,988.88
2022-09-07T05:00:30.066Z,988.88
2022-09-07T05:01:30.029Z,988.94
2022-09-07T05:02:29.949Z,988.98
2022-09-07T05:03:29.810Z,989.06
2022-09-07T05:04:29.729Z,989.07
2022-09-07T05:05:29.643Z,989.12
2022-09-07T05:06:29.559Z,989.11
2022-09-07T05:07:29.475Z,989.08
2022-09-07T05:08:29.384Z,989.15
2022-09-07T05:09:29.306Z,989.17
2022-09-07T05:10:29.219Z,989.22
2022-09-07T05:11:30.036Z,989.20
2022-09-07T05:12:29.056Z,989.19
2022-09-07T05:13:28.967Z,989.15
2022-09-07T05:14:28.886Z,989.12
2022-09-07T05:15:28.798Z,989.17
2022-09-07T05:16:28.773Z,989.12
2022-09-07T05:17:28.628Z,989.17
2022-09-07T05:18:28.599Z,989.19
2022-09-07T05:19:28.465Z,989.23
2022-09-07T05:20:28.378Z,989.28
2022-09-07T05:21:28.295Z,989.28
2022-09-07T05:22:28.205Z,989.24
2022-09-07T05:23:28.122Z,989.28
2022-09-07T05:24:28.045Z,989.24
2022-09-07T05:25:27.959Z,989.22
2022-09-07T05:26:27.875Z,989.22
2022-09-07T05:27:27.794Z,989.26
2022-09-07T05:28:27.704Z,989.28
2022-09-07T05:31:27.448Z,989.26
2022-09-07T05:32:27.366Z,989.25
2022-09-07T05:35:27.120Z,989.17
2022-09-07T05:36:27.031Z,989.17
2022-09-07T05:37:26.953Z,989.20
2022-09-07T05:38:26.869Z,989.16
2022-09-07T05:39:26.891Z,989.17
2022-09-07T05:40:26.696Z,989.16
2022-09-07T05:41:26.607Z,989.16
2022-09-07T05:42:26.525Z,989.13
2022-09-07T05:43:26.442Z,989.09
2022-09-07T05:45:26.280Z,989.07
2022-09-07T05:46:26.192Z,989.07
2022-09-07T05:47:26.103Z,989.04
2022-09-07T05:48:26.022Z,989.05
2022-09-07T05:49:25.935Z,989.03
2022-09-07T05:50:25.854Z,989.01
2022-09-07T05:51:25.770Z,989.00
2022-09-07T05:52:25.747Z,988.98
2022-09-07T05:53:25.602Z,989.01
2022-09-07T05:54:25.518Z,989.02
2022-09-07T05:55:30.415Z,988.97
2022-09-07T05:56:25.350Z,989.02
2022-09-07T05:57:25.294Z,988.99
2022-09-07T05:58:25.221Z,989.03
2022-09-07T05:59:25.099Z,989.01
2022-09-07T06:00:25.011Z,988.99
2022-09-07T06:01:24.940Z,988.99
2022-09-07T06:02:24.979Z,988.95
2022-09-07T06:03:24.834Z,988.94
2022-09-07T06:04:24.678Z,988.98
2022-09-07T06:05:24.595Z,988.95
2022-09-07T06:06:24.523Z,988.89
2022-09-07T06:07:24.434Z,988.84
2022-09-07T06:08:24.347Z,988.84
2022-09-07T06:09:28.409Z,988.80
2022-09-07T06:11:24.090Z,988.78
2022-09-07T06:12:24.010Z,988.74
2022-09-07T06:13:23.929Z,988.73
2022-09-07T06:14:23.842Z,988.74
2022-09-07T06:15:23.762Z,988.74
2022-09-07T06:16:23.758Z,988.72
2022-09-07T06:17:23.597Z,988.78
2022-09-07T06:18:23.511Z,988.71
2022-09-07T06:19:23.430Z,988.70
2022-09-07T06:20:23.343Z,988.68
2022-09-07T06:21:23.260Z,988.72
2022-09-07T06:22:24.413Z,988.72
2022-09-07T06:23:23.092Z,988.73
2022-09-07T06:24:23.009Z,988.74
2022-09-07T06:25:22.924Z,988.70
2022-09-07T06:26:22.842Z,988.71
2022-09-07T06:27:22.757Z,988.70
2022-09-07T06:28:22.678Z,988.67
2022-09-07T06:29:22.593Z,988.63
2022-09-07T06:30:22.507Z,988.58
2022-09-07T06:31:22.926Z,988.59
2022-09-07T06:33:22.261Z,988.57
2022-09-07T06:34:22.177Z,988.52
2022-09-07T06:35:22.093Z,988.52
2022-09-07T06:36:22.011Z,988.56
2022-09-07T06:37:21.927Z,988.56
2022-09-07T06:38:21.839Z,988.59
2022-09-07T06:39:21.761Z,988.59
2022-09-07T06:40:21.680Z,988.58
2022-09-07T06:42:21.510Z,988.58
2022-09-07T06:43:21.427Z,988.58
2022-09-07T06:44:21.345Z,988.61
2022-09-07T06:45:21.263Z,988.59
2022-09-07T06:47:21.094Z,988.62
2022-09-07T06:48:21.017Z,988.63
2022-09-07T06:49:20.924Z,988.68
2022-09-07T06:50:20.843Z,988.72
2022-09-07T06:51:20.766Z,988.77
2022-09-07T06:52:20.682Z,988.82
2022-09-07T06:53:36.885Z,988.80
2022-09-07T06:55:20.431Z,988.83
2022-09-07T06:56:20.349Z,988.81
2022-09-07T06:57:20.266Z,988.84
2022-09-07T06:58:20.184Z,988.83
2022-09-07T06:59:20.101Z,988.83
2022-09-07T07:00:20.017Z,988.87
2022-09-07T07:01:19.990Z,988.96
2022-09-07T07:02:19.851Z,989.02
2022-09-07T07:03:19.853Z,989.16
2022-09-07T07:04:19.686Z,989.32
2022-09-07T07:05:19.600Z,989.47
2022-09-07T07:06:19.520Z,989.54
2022-09-07T07:07:19.438Z,989.54
2022-09-07T07:08:19.354Z,989.51
2022-09-07T07:09:19.273Z,989.44
2022-09-07T07:10:24.211Z,989.36
2022-09-07T07:11:19.106Z,989.19
2022-09-07T07:14:22.132Z,988.99
2022-09-07T07:15:22.033Z,989.01
2022-09-07T07:16:21.998Z,989.08
2022-09-07T07:17:21.875Z,989.15
2022-09-07T07:18:21.816Z,989.21
2022-09-07T07:19:21.701Z,989.18
2022-09-07T07:20:21.616Z,989.16
2022-09-07T07:21:21.543Z,989.07
2022-09-07T07:22:45.693Z,989.05
2022-09-07T07:23:21.369Z,989.02
2022-09-07T07:24:21.285Z,989.04
2022-09-07T07:25:21.204Z,989.07
2022-09-07T07:26:21.120Z,989.08
2022-09-07T07:27:21.034Z,989.08
2022-09-07T07:29:22.834Z,989.03
2022-09-07T07:30:20.790Z,988.90
2022-09-07T07:31:20.706Z,988.95
2022-09-07T07:32:20.624Z,989.10
2022-09-07T07:33:20.545Z,989.25
2022-09-07T07:34:20.555Z,989.38
2022-09-07T07:35:20.375Z,989.35
2022-09-07T07:36:20.289Z,989.40
2022-09-07T07:37:22.770Z,989.32
2022-09-07T07:40:23.455Z,989.67
2022-09-07T07:42:21.193Z,989.40
2022-09-07T07:43:19.709Z,989.23
2022-09-07T07:44:19.634Z,989.13
2022-09-07T07:46:19.494Z,989.04
2022-09-07T07:47:19.374Z,988.98
2022-09-07T07:48:19.291Z,988.96
2022-09-07T07:49:19.204Z,989.00
2022-09-07T07:50:34.774Z,989.04
2022-09-07T07:51:19.041Z,989.02
2022-09-07T07:54:18.808Z,988.81
2022-09-07T07:56:18.636Z,988.67
2022-09-07T07:57:18.541Z,988.62
2022-09-07T07:58:18.459Z,988.64
2022-09-07T07:59:18.386Z,988.65
2022-09-07T08:00:32.004Z,988.73
2022-09-07T08:01:18.218Z,988.76
2022-09-07T08:02:18.195Z,988.80
2022-09-07T08:03:18.037Z,988.77
2022-09-07T08:04:17.967Z,988.82
2022-09-07T08:05:17.869Z,988.79
2022-09-07T08:06:17.789Z,988.84
2022-09-07T08:07:17.703Z,988.83
2022-09-07T08:08:17.619Z,988.77
2022-09-07T08:09:17.539Z,988.84
2022-09-07T08:10:17.455Z,988.83
2022-09-07T08:11:17.371Z,988.83
2022-09-07T08:12:17.290Z,988.78
2022-09-07T08:13:17.206Z,988.75
2022-09-07T08:14:17.125Z,988.78
2022-09-07T08:15:17.036Z,988.69
2022-09-07T08:16:17.024Z,988.68
2022-09-07T08:17:16.871Z,988.67
2022-09-07T08:18:16.806Z,988.69
2022-09-07T08:19:16.706Z,988.69
2022-09-07T08:20:16.625Z,988.71
2022-09-07T08:21:16.547Z,988.78
2022-09-07T08:22:16.479Z,988.75
2022-09-07T08:23:16.381Z,988.74
2022-09-07T08:24:16.289Z,988.79
2022-09-07T08:25:16.205Z,988.78
2022-09-07T08:26:16.121Z,988.73
2022-09-07T08:27:16.037Z,988.73
2022-09-07T08:28:15.953Z,988.73
2022-09-07T08:29:15.871Z,988.72
2022-09-07T08:30:15.787Z,988.73
2022-09-07T08:31:15.788Z,988.74
2022-09-07T08:32:15.622Z,988.75
2022-09-07T08:33:15.539Z,988.76
2022-09-07T08:34:15.456Z,988.78
2022-09-07T08:35:15.377Z,988.79
2022-09-07T08:36:15.295Z,988.81
2022-09-07T08:37:15.207Z,988.77
2022-09-07T08:38:19.149Z,988.79
2022-09-07T08:39:15.040Z,988.79
2022-09-07T08:40:15.003Z,988.84
2022-09-07T08:41:14.875Z,988.80
2022-09-07T08:42:14.793Z,988.84
2022-09-07T08:43:14.713Z,988.82
2022-09-07T08:44:14.639Z,988.82
2022-09-07T08:45:14.545Z,988.82
2022-09-07T08:46:14.483Z,988.77
2022-09-07T08:47:14.384Z,988.84
2022-09-07T08:48:14.297Z,988.82
2022-09-07T08:49:14.214Z,988.82
2022-09-07T08:50:14.130Z,988.89
2022-09-07T08:51:14.052Z,988.91
2022-09-07T08:52:13.957Z,988.94
2022-09-07T08:53:13.878Z,988.95
2022-09-07T08:54:13.800Z,988.93
2022-09-07T08:55:13.720Z,988.93
2022-09-07T08:56:13.636Z,988.95
2022-09-07T08:57:21.227Z,988.89
2022-09-07T08:58:27.078Z,988.88
2022-09-07T08:59:13.386Z,988.87
2022-09-07T09:00:13.306Z,988.87
2022-09-07T09:03:29.018Z,988.79
2022-09-07T09:04:17.231Z,988.75
2022-09-07T09:06:10.830Z,988.82
2022-09-07T09:06:11.565Z,988.78
2022-09-07T09:06:13.218Z,988.80
2022-09-07T09:07:12.935Z,988.77
2022-09-07T09:08:12.652Z,988.76
2022-09-07T09:09:12.576Z,988.74
2022-09-07T09:10:12.484Z,988.73
2022-09-07T09:11:12.400Z,988.72
2022-09-07T09:12:12.331Z,988.76
2022-09-07T09:13:12.240Z,988.73
2022-09-07T09:14:12.153Z,988.75
2022-09-07T09:15:12.068Z,988.73
2022-09-07T09:16:12.061Z,988.74
2022-09-07T09:17:11.907Z,988.72
2022-09-07T09:18:14.418Z,988.75
2022-09-07T09:19:11.748Z,988.75
2022-09-07T09:20:11.661Z,988.72
2022-09-07T09:21:11.579Z,988.75
2022-09-07T09:22:11.499Z,988.75
2022-09-07T09:23:11.418Z,988.73
2022-09-07T09:24:11.330Z,988.74
2022-09-07T09:25:11.267Z,988.75
2022-09-07T09:26:11.218Z,988.73
2022-09-07T09:27:11.090Z,988.72
2022-09-07T09:28:11.004Z,988.72
2022-09-07T09:29:10.926Z,988.72
2022-09-07T09:30:10.844Z,988.70
2022-09-07T09:31:10.858Z,988.67
2022-09-07T09:32:10.677Z,988.69
2022-09-07T09:33:10.596Z,988.71
2022-09-07T09:34:10.521Z,988.69
2022-09-07T09:35:10.435Z,988.70
2022-09-07T09:36:10.352Z,988.72
2022-09-07T09:37:10.267Z,988.72
2022-09-07T09:38:10.191Z,988.73
2022-09-07T09:39:10.105Z,988.77
2022-09-07T09:40:10.055Z,988.78
2022-09-07T09:41:09.938Z,988.79
2022-09-07T09:42:09.859Z,988.77
2022-09-07T09:43:09.777Z,988.79
2022-09-07T09:44:09.696Z,988.74
2022-09-07T09:45:09.616Z,988.80
2022-09-07T09:46:12.924Z,988.80
2022-09-07T09:48:09.367Z,988.78
2022-09-07T09:49:09.288Z,988.75
2022-09-07T09:50:09.470Z,988.73
2022-09-07T16:39:51.921Z,987.19
2022-09-07T16:40:51.762Z,987.21
2022-09-07T16:42:57.649Z,987.26
2022-09-07T16:43:57.648Z,987.25
2022-09-07T16:59:16.122Z,987.09
2022-09-07T17:02:46.103Z,987.13
2022-09-07T17:05:24.308Z,987.09
2022-09-07T17:06:24.152Z,987.05
2022-09-07T17:08:35.607Z,987.07
2022-09-07T17:09:35.506Z,987.08
2022-09-07T17:15:53.732Z,987.11
2022-09-07T17:16:53.712Z,987.10
2022-09-07T17:20:07.982Z,987.13
2022-09-07T17:24:20.581Z,987.11
2022-09-07T17:25:20.439Z,987.12
2022-09-07T17:27:24.922Z,987.09
2022-09-07T17:28:24.739Z,987.09
2022-09-07T17:32:25.296Z,987.01
2022-09-07T17:33:17.232Z,987.06
2022-09-07T17:36:49.793Z,986.96
2022-09-07T17:37:49.703Z,986.92
2022-09-07T17:39:54.223Z,986.95
2022-09-07T17:40:54.862Z,986.97
2022-09-07T17:44:06.860Z,987.04
2022-09-07T17:46:12.316Z,987.05
2022-09-07T17:47:12.143Z,987.05
2022-09-07T17:50:44.742Z,987.06
2022-09-07T17:51:44.666Z,987.08
2022-09-07T17:55:06.166Z,987.05
2022-09-07T17:56:06.040Z,987.05
2022-09-07T17:58:10.435Z,987.01
2022-09-07T18:33:27.358Z,987.55
2022-09-07T18:34:19.311Z,987.54
2022-09-07T18:43:16.382Z,987.64
2022-09-07T18:50:47.018Z,987.82
2022-09-07T18:52:51.457Z,987.82
2022-09-07T18:52:52.854Z,987.83
2022-09-07T18:53:36.553Z,987.88
2022-09-07T18:54:36.534Z,987.85
2022-09-07T18:55:36.490Z,987.85
2022-09-07T18:56:36.347Z,987.89
2022-09-07T18:57:36.620Z,987.87
2022-09-07T18:58:36.137Z,987.91
2022-09-07T18:59:36.079Z,987.86
2022-09-07T19:00:35.992Z,987.87
2022-09-07T19:01:35.944Z,987.90
2022-09-07T19:02:36.085Z,987.86
2022-09-07T19:03:35.712Z,987.87
2022-09-07T19:05:51.522Z,987.92
2022-09-07T19:06:35.472Z,987.97
2022-09-07T19:07:35.438Z,987.97
2022-09-07T19:08:35.324Z,987.98
2022-09-07T19:09:35.254Z,987.95
2022-09-07T19:10:35.194Z,987.94
2022-09-07T19:11:35.062Z,987.95
2022-09-07T19:12:34.993Z,987.94
2022-09-07T19:13:35.059Z,987.88
2022-09-07T19:14:34.877Z,987.84
2022-09-07T19:15:37.107Z,987.80
2022-09-07T19:16:34.739Z,987.78
2022-09-07T19:17:34.566Z,987.76
2022-09-07T19:18:34.505Z,987.75
2022-09-07T19:19:34.406Z,987.71
2022-09-07T19:20:34.317Z,987.69
2022-09-07T19:21:34.273Z,987.68
2022-09-07T19:22:34.220Z,987.71
2022-09-07T19:23:34.182Z,987.70
2022-09-07T19:24:33.990Z,987.74
2022-09-07T19:25:34.106Z,987.72
2022-09-07T19:26:33.868Z,987.72
2022-09-07T19:27:33.767Z,987.74
2022-09-07T19:28:33.671Z,987.74
2022-09-07T19:29:33.673Z,987.77
2022-09-07T19:30:33.513Z,987.81
2022-09-07T19:31:33.521Z,987.81
2022-09-07T19:32:33.381Z,987.86
2022-09-07T19:33:33.367Z,987.85
2022-09-07T19:34:33.254Z,987.82
2022-09-07T19:35:33.164Z,987.80
2022-09-07T19:36:33.009Z,987.81
2022-09-07T19:37:32.925Z,987.84
2022-09-07T19:38:32.904Z,987.82
2022-09-07T19:39:32.898Z,987.85
2022-09-07T19:40:32.731Z,987.89
2022-09-07T19:41:32.595Z,987.90
2022-09-07T19:42:32.648Z,987.93
2022-09-07T19:43:32.617Z,987.94
2022-09-07T19:44:32.353Z,987.98
2022-09-07T19:45:32.317Z,987.99
2022-09-07T19:46:32.219Z,987.95
2022-09-07T19:47:32.123Z,987.97
2022-09-07T19:48:32.025Z,987.98
2022-09-07T19:49:31.969Z,987.94
2022-09-07T19:50:31.874Z,987.95
2022-09-07T19:51:36.634Z,987.92
2022-09-07T19:52:31.726Z,987.91
2022-09-07T19:53:31.596Z,987.91
2022-09-07T19:54:31.569Z,987.89
2022-09-07T19:55:31.451Z,987.93
2022-09-07T19:56:31.360Z,987.91
2022-09-07T19:57:31.313Z,987.96
2022-09-07T19:58:31.222Z,987.94
2022-09-07T19:59:31.198Z,987.95
2022-09-07T20:00:31.096Z,987.95
2022-09-07T20:01:30.957Z,987.92
2022-09-07T20:02:30.912Z,987.91
2022-09-07T20:03:30.916Z,987.89
2022-09-07T20:04:30.774Z,987.84
2022-09-07T20:05:30.628Z,987.79
2022-09-07T20:06:30.531Z,987.76
2022-09-07T20:07:30.511Z,987.75
2022-09-07T20:08:30.381Z,987.69
2022-09-07T20:09:30.328Z,987.69
2022-09-07T20:10:30.218Z,987.64
2022-09-07T20:11:30.161Z,987.62
2022-09-07T20:12:30.068Z,987.65
2022-09-07T20:13:30.034Z,987.65
2022-09-07T20:14:29.875Z,987.66
2022-09-07T20:15:29.797Z,987.69
2022-09-07T20:16:29.879Z,987.71
2022-09-07T20:17:34.434Z,987.82
2022-09-07T20:18:29.549Z,987.82
2022-09-07T20:19:29.521Z,987.80
2022-09-07T20:20:29.383Z,987.84
2022-09-07T20:21:29.424Z,987.86
2022-09-07T20:22:29.282Z,987.85
2022-09-07T20:23:29.250Z,987.84
2022-09-07T20:24:29.052Z,987.80
2022-09-07T20:25:28.978Z,987.76
2022-09-07T20:26:28.907Z,987.78
2022-09-07T20:27:28.860Z,987.74
2022-09-07T20:28:28.737Z,987.76
2022-09-07T20:29:29.339Z,987.71
2022-09-07T20:30:32.391Z,987.71
2022-09-07T20:31:28.571Z,987.68
2022-09-07T20:32:28.434Z,987.68
2022-09-07T20:33:28.391Z,987.66
2022-09-07T20:34:28.265Z,987.63
2022-09-07T20:35:28.157Z,987.66
2022-09-07T20:36:28.264Z,987.65
2022-09-07T20:37:27.985Z,987.65
2022-09-07T20:38:27.911Z,987.60
2022-09-07T20:39:27.922Z,987.59
2022-09-07T20:40:27.792Z,987.56
2022-09-07T20:41:27.649Z,987.59
2022-09-07T20:42:27.595Z,987.60
2022-09-07T20:43:27.595Z,987.56
2022-09-07T20:44:27.497Z,987.56
2022-09-07T20:45:31.210Z,987.52
2022-09-07T20:46:27.322Z,987.50
2022-09-07T20:47:27.153Z,987.47
2022-09-07T20:48:27.135Z,987.46
2022-09-07T20:49:26.992Z,987.46
2022-09-07T20:50:26.955Z,987.45
2022-09-07T20:51:26.835Z,987.44
2022-09-07T20:52:26.741Z,987.45
2022-09-07T20:53:26.653Z,987.39
2022-09-07T20:54:26.578Z,987.40
2022-09-07T20:55:26.569Z,987.40
2022-09-07T20:56:26.408Z,987.35
2022-09-07T20:57:26.324Z,987.33
2022-09-07T20:58:26.253Z,987.33
2022-09-07T20:59:26.155Z,987.35
2022-09-07T21:00:26.079Z,987.37
2022-09-07T21:01:26.094Z,987.35
2022-09-07T21:02:25.986Z,987.38
2022-09-07T21:03:25.833Z,987.39
2022-09-07T21:04:25.772Z,987.40
2022-09-07T21:05:25.675Z,987.38
2022-09-07T21:06:25.587Z,987.37
2022-09-07T21:07:25.506Z,987.37
2022-09-07T21:08:25.461Z,987.39
2022-09-07T21:09:25.358Z,987.36
2022-09-07T21:10:25.259Z,987.41
2022-09-07T21:11:25.236Z,987.41
2022-09-07T21:12:25.146Z,987.42
2022-09-07T21:13:25.006Z,987.44
2022-09-07T21:14:24.920Z,987.45
2022-09-07T21:15:24.859Z,987.47
2022-09-07T21:16:24.808Z,987.46
2022-09-07T21:17:24.676Z,987.47
2022-09-07T21:18:24.581Z,987.43
2022-09-07T21:19:24.500Z,987.45
2022-09-07T21:20:24.480Z,987.46
2022-09-07T21:21:24.404Z,987.45
2022-09-07T21:22:24.472Z,987.49
2022-09-07T21:23:24.169Z,987.45
2022-09-07T21:24:24.084Z,987.48
2022-09-07T21:25:24.061Z,987.43
2022-09-07T21:26:23.928Z,987.40
2022-09-07T21:27:23.870Z,987.38
2022-09-07T21:28:23.884Z,987.38
2022-09-07T21:29:23.762Z,987.35
2022-09-07T21:30:23.647Z,987.39
2022-09-07T21:31:23.600Z,987.39
2022-09-07T21:32:23.459Z,987.40
2022-09-07T21:33:23.451Z,987.37
2022-09-07T21:34:23.429Z,987.38
2022-09-07T21:35:23.191Z,987.34
2022-09-07T21:36:23.090Z,987.36
2022-09-07T21:37:23.057Z,987.34
2022-09-07T21:38:23.089Z,987.33
2022-09-07T21:39:22.930Z,987.35
2022-09-07T21:40:22.764Z,987.34
2022-09-07T21:41:22.681Z,987.34
2022-09-07T21:42:22.616Z,987.33
2022-09-07T21:43:22.512Z,987.34
2022-09-07T21:44:22.433Z,987.30
2022-09-07T21:45:22.343Z,987.32
2022-09-07T21:46:22.375Z,987.30
2022-09-07T21:47:22.220Z,987.32
2022-09-07T21:48:22.110Z,987.29
2022-09-07T21:49:22.028Z,987.29
2022-09-07T21:50:21.933Z,987.33
2022-09-07T21:51:21.916Z,987.31
2022-09-07T21:52:21.765Z,987.28
2022-09-07T21:53:21.687Z,987.29
2022-09-07T21:54:21.611Z,987.26
2022-09-07T21:55:21.569Z,987.25
2022-09-07T21:56:21.439Z,987.23
2022-09-07T21:57:21.366Z,987.25
2022-09-07T21:58:21.271Z,987.22
2022-09-07T21:59:21.190Z,987.16
2022-09-07T22:00:21.182Z,987.20
2022-09-07T22:01:21.092Z,987.18
2022-09-07T22:02:21.071Z,987.16
2022-09-07T22:03:20.876Z,987.12
2022-09-07T22:04:20.778Z,987.15
2022-09-07T22:05:20.695Z,987.17
2022-09-07T22:06:20.601Z,987.15
2022-09-07T22:07:20.518Z,987.14
2022-09-07T22:08:20.452Z,987.10
2022-09-07T22:09:20.359Z,987.10
2022-09-07T22:10:20.304Z,987.10
2022-09-07T22:11:20.230Z,987.10
2022-09-07T22:12:20.172Z,987.10
2022-09-07T22:13:20.039Z,987.08
2022-09-07T22:14:19.938Z,987.06
2022-09-07T22:15:19.857Z,987.11
2022-09-07T22:16:19.845Z,987.15
2022-09-07T22:17:19.709Z,987.09
2022-09-07T22:18:19.610Z,987.12
2022-09-07T22:19:19.598Z,987.11
2022-09-07T22:20:19.487Z,987.15